RJNA(METAR)
03/23 15:00
METAR RJNA 230600Z 27010KT 9999 FEW060 BKN230 14/M03 Q1014 RMK 2SC060
A2996=
戻る
トップページへ戻る
IMOC Co,.Ltd.